Time;durP1;ratioP1;P1;durP2;ratioP2;P2;SDS_P1;SDS_P2;PMS_P1;PMS_P2;Temp;Humidity;BMP_temperature;BMP_pressure;BME280_temperature;BME280_humidity;BME280_pressure;Samples;Min_cycle;Max_cycle;Signal;HPM_P1;HPM_P2
2021/07/26 00:01:49;;;;;;;28.33;25.35;;;20.60;99.90;;;;;;4992075;28;20048;-83
2021/07/26 00:04:15;;;;;;;29.77;24.88;;;20.60;99.90;;;;;;5007796;28;20041;-76
2021/07/26 00:06:43;;;;;;;28.65;25.52;;;20.60;99.90;;;;;;5008570;28;20442;-83
2021/07/26 00:09:08;;;;;;;28.30;25.35;;;20.60;99.90;;;;;;4991101;28;20084;-83
2021/07/26 00:11:34;;;;;;;27.33;24.55;;;20.60;99.90;;;;;;5006612;28;20033;-81
2021/07/26 00:14:00;;;;;;;26.75;24.13;;;20.60;99.90;;;;;;5008261;28;20510;-83
2021/07/26 00:16:25;;;;;;;28.75;25.73;;;20.60;99.90;;;;;;5007855;28;20092;-83
2021/07/26 00:18:51;;;;;;;27.90;24.55;;;20.60;99.90;;;;;;5009957;28;20431;-82
2021/07/26 00:21:16;;;;;;;28.48;25.48;;;20.60;99.90;;;;;;5008805;28;20037;-83
2021/07/26 00:23:43;;;;;;;30.42;27.42;;;20.60;99.90;;;;;;5007510;28;20464;-83
2021/07/26 00:26:09;;;;;;;30.65;27.30;;;20.70;99.90;;;;;;5007331;28;20022;-83
2021/07/26 00:28:34;;;;;;;29.85;26.75;;;20.60;99.90;;;;;;5006487;28;20049;-82
2021/07/26 00:31:00;;;;;;;29.45;26.42;;;20.70;99.90;;;;;;5007172;28;20026;-83
2021/07/26 00:34:20;;;;;;;31.85;27.77;;;20.60;99.90;;;;;;5009087;28;20598;-83
2021/07/26 00:36:51;;;;;;;33.33;28.77;;;20.60;99.90;;;;;;5006376;28;20026;-83
2021/07/26 00:39:19;;;;;;;31.55;26.90;;;20.60;99.90;;;;;;5009596;28;20060;-83
2021/07/26 00:41:47;;;;;;;29.95;26.85;;;20.60;99.90;;;;;;5010001;28;21843;-83
2021/07/26 00:44:13;;;;;;;27.40;24.80;;;20.50;99.90;;;;;;5011287;28;20064;-83
2021/07/26 00:46:39;;;;;;;31.05;27.85;;;20.50;99.90;;;;;;5013052;28;20500;-83
2021/07/26 00:49:08;;;;;;;28.58;25.67;;;20.50;99.90;;;;;;5013587;28;20153;-83
2021/07/26 00:51:35;;;;;;;26.60;23.80;;;20.60;99.90;;;;;;5005815;28;20443;-83
2021/07/26 00:54:01;;;;;;;30.40;27.20;;;20.50;99.90;;;;;;5014199;28;20364;-84
2021/07/26 00:56:29;;;;;;;28.75;25.65;;;20.50;99.90;;;;;;5013966;28;20105;-84
2021/07/26 00:58:55;;;;;;;33.85;30.15;;;20.50;99.90;;;;;;5013780;28;20021;-84
2021/07/26 01:01:20;;;;;;;28.23;25.45;;;20.50;99.90;;;;;;5009331;28;20050;-85
2021/07/26 01:03:46;;;;;;;27.92;24.98;;;20.50;99.90;;;;;;5015857;28;20050;-84
2021/07/26 01:06:12;;;;;;;28.75;25.88;;;20.50;99.90;;;;;;5015601;28;20104;-84
2021/07/26 01:08:38;;;;;;;29.05;26.02;;;20.50;99.90;;;;;;5017154;28;20026;-84
2021/07/26 01:11:05;;;;;;;29.58;26.38;;;20.40;99.90;;;;;;5021078;28;20168;-83
2021/07/26 01:13:31;;;;;;;32.00;27.45;;;20.40;99.90;;;;;;5015906;28;20094;-84
2021/07/26 01:15:57;;;;;;;31.17;27.45;;;20.30;99.90;;;;;;4996205;28;20082;-84
2021/07/26 01:18:36;;;;;;;32.13;27.08;;;20.30;99.90;;;;;;5019401;28;20042;-84
2021/07/26 01:21:04;;;;;;;29.27;26.17;;;20.30;99.90;;;;;;5012012;28;20068;-83
2021/07/26 01:23:32;;;;;;;31.08;26.70;;;20.30;99.90;;;;;;5015468;28;20029;-83
2021/07/26 01:25:58;;;;;;;30.92;27.73;;;20.30;99.90;;;;;;5014401;28;20025;-83
2021/07/26 01:28:27;;;;;;;32.83;27.65;;;20.30;99.90;;;;;;5014756;28;20034;-84
2021/07/26 01:30:56;;;;;;;30.38;27.23;;;20.30;99.90;;;;;;5012669;28;20067;-83
2021/07/26 01:33:22;;;;;;;33.38;28.33;;;20.30;99.90;;;;;;5013644;28;20057;-83
2021/07/26 01:35:52;;;;;;;32.03;27.75;;;20.20;99.90;;;;;;5014053;28;20032;-83
2021/07/26 01:38:17;;;;;;;31.25;27.95;;;20.30;99.90;;;;;;5014426;28;20033;-84
2021/07/26 01:40:45;;;;;;;30.45;27.35;;;20.30;99.90;;;;;;5011408;28;20022;-83
2021/07/26 01:43:10;;;;;;;30.75;27.65;;;20.30;99.90;;;;;;5014227;28;20022;-83
2021/07/26 01:45:38;;;;;;;32.35;29.05;;;20.30;99.90;;;;;;5015527;28;20026;-83
2021/07/26 01:48:21;;;;;;;31.17;27.77;;;20.30;99.90;;;;;;5016037;28;20038;-83
2021/07/26 01:50:53;;;;;;;32.40;28.98;;;20.30;99.90;;;;;;5014118;28;20029;-83
2021/07/26 01:53:19;;;;;;;31.17;28.00;;;20.40;99.90;;;;;;5007742;28;20022;-83
2021/07/26 01:55:44;;;;;;;32.38;29.02;;;20.40;99.90;;;;;;5013692;28;20026;-83
2021/07/26 01:58:11;;;;;;;31.98;28.48;;;20.30;99.90;;;;;;5013207;28;20031;-84
2021/07/26 02:00:37;;;;;;;32.55;28.58;;;20.20;99.90;;;;;;5014863;28;20030;-83
2021/07/26 02:03:03;;;;;;;30.63;27.42;;;20.20;99.90;;;;;;5008768;28;20498;-84
2021/07/26 02:05:32;;;;;;;30.40;26.95;;;20.20;99.90;;;;;;5014335;28;20602;-83
2021/07/26 02:07:57;;;;;;;29.70;26.77;;;20.20;99.90;;;;;;5011453;28;20053;-82
2021/07/26 02:10:23;;;;;;;32.63;27.50;;;20.30;99.90;;;;;;5011985;28;20037;-82
2021/07/26 02:12:48;;;;;;;31.33;28.00;;;20.30;99.90;;;;;;5011285;28;20017;-84
2021/07/26 02:15:14;;;;;;;37.47;33.47;;;20.30;99.90;;;;;;5013089;28;20034;-84
2021/07/26 02:17:40;;;;;;;29.33;26.17;;;20.30;99.90;;;;;;5013183;28;20030;-84
2021/07/26 02:20:06;;;;;;;30.10;27.02;;;20.30;99.90;;;;;;5013568;28;20037;-84
2021/07/26 02:22:31;;;;;;;30.48;27.13;;;20.30;99.90;;;;;;5010752;28;20045;-83
2021/07/26 02:24:57;;;;;;;30.60;27.42;;;20.30;99.90;;;;;;5014358;28;20022;-84
2021/07/26 02:27:23;;;;;;;30.63;27.38;;;20.30;99.90;;;;;;4994064;28;20096;-82
2021/07/26 02:29:50;;;;;;;30.92;27.45;;;20.30;99.90;;;;;;5009619;28;20037;-84
2021/07/26 02:32:15;;;;;;;31.40;28.10;;;20.30;99.90;;;;;;5011852;28;20054;-83
2021/07/26 02:34:41;;;;;;;28.48;25.55;;;20.30;99.90;;;;;;5011869;28;20033;-83
2021/07/26 02:37:06;;;;;;;30.25;27.05;;;20.30;99.90;;;;;;5009847;28;20026;-83
2021/07/26 02:39:32;;;;;;;29.33;26.27;;;20.30;99.90;;;;;;5006399;28;20038;-83
2021/07/26 02:42:01;;;;;;;28.10;25.30;;;20.20;99.90;;;;;;5012505;28;20531;-83
2021/07/26 02:44:26;;;;;;;31.13;27.85;;;20.20;99.90;;;;;;5010108;28;20030;-83
2021/07/26 02:46:52;;;;;;;28.17;25.33;;;20.10;99.90;;;;;;5010718;28;20018;-83
2021/07/26 02:49:17;;;;;;;30.00;26.92;;;20.10;99.90;;;;;;5004309;28;20022;-83
2021/07/26 02:51:43;;;;;;;31.00;27.85;;;20.10;99.90;;;;;;5009261;28;20366;-82
2021/07/26 02:54:08;;;;;;;30.92;27.60;;;20.10;99.90;;;;;;5009658;28;20503;-83
2021/07/26 02:56:34;;;;;;;29.13;26.10;;;20.00;99.90;;;;;;5010879;28;20384;-82
2021/07/26 02:59:00;;;;;;;29.13;26.23;;;20.00;99.90;;;;;;5011603;28;20029;-82
2021/07/26 03:01:25;;;;;;;30.13;27.13;;;20.10;99.90;;;;;;5004552;28;20040;-82
2021/07/26 03:03:51;;;;;;;31.20;27.95;;;20.00;99.90;;;;;;5011092;28;20022;-81
2021/07/26 03:06:18;;;;;;;31.95;27.33;;;20.00;99.90;;;;;;5011442;28;20032;-82
2021/07/26 03:08:44;;;;;;;34.35;30.98;;;20.00;99.90;;;;;;5002124;28;20073;-84
2021/07/26 03:11:10;;;;;;;30.08;26.90;;;20.00;99.90;;;;;;4998095;28;20416;-82
2021/07/26 03:13:40;;;;;;;28.90;25.80;;;20.00;99.90;;;;;;5001815;28;20105;-82
2021/07/26 03:16:07;;;;;;;30.45;27.45;;;20.00;99.90;;;;;;4997570;28;20403;-83
2021/07/26 03:18:33;;;;;;;30.38;27.17;;;20.00;99.90;;;;;;5000500;28;20048;-81
2021/07/26 03:20:59;;;;;;;30.77;27.65;;;20.00;99.90;;;;;;5009942;28;20026;-83
2021/07/26 03:23:25;;;;;;;30.88;27.92;;;20.00;99.90;;;;;;5008463;28;20357;-82
2021/07/26 03:25:51;;;;;;;30.63;27.55;;;20.10;99.90;;;;;;5008587;28;20018;-82
2021/07/26 03:28:17;;;;;;;32.83;28.45;;;20.10;99.90;;;;;;4969452;28;20038;-82
2021/07/26 03:30:42;;;;;;;31.88;28.45;;;20.10;99.90;;;;;;5007868;28;20475;-82
2021/07/26 03:33:08;;;;;;;31.45;28.20;;;20.00;99.90;;;;;;5007656;28;20406;-82
2021/07/26 03:35:34;;;;;;;33.58;30.15;;;20.10;99.90;;;;;;4992742;28;20034;-81
2021/07/26 03:38:00;;;;;;;34.05;28.88;;;20.10;99.90;;;;;;5003969;28;20033;-81
2021/07/26 03:40:25;;;;;;;32.42;28.95;;;20.00;99.90;;;;;;5007192;28;20392;-82
2021/07/26 03:42:51;;;;;;;31.80;28.25;;;20.00;99.90;;;;;;5011010;28;20018;-82
2021/07/26 03:45:20;;;;;;;32.85;28.73;;;20.00;99.90;;;;;;4996500;28;20042;-82
2021/07/26 03:47:46;;;;;;;30.98;27.88;;;20.00;99.90;;;;;;5014090;28;20030;-82
2021/07/26 03:50:16;;;;;;;31.25;28.15;;;20.00;99.90;;;;;;5016285;28;20097;-82
2021/07/26 03:52:47;;;;;;;31.75;28.45;;;20.00;99.90;;;;;;5007516;28;20125;-82
2021/07/26 03:55:14;;;;;;;33.78;29.90;;;20.00;99.90;;;;;;5016863;28;20026;-81
2021/07/26 03:57:40;;;;;;;31.00;27.83;;;20.00;99.90;;;;;;5013994;28;20113;-79
2021/07/26 04:00:06;;;;;;;31.70;28.27;;;20.00;99.90;;;;;;5016118;28;20074;-81
2021/07/26 04:02:32;;;;;;;30.92;27.70;;;20.00;99.90;;;;;;5011307;28;20037;-81
2021/07/26 04:04:57;;;;;;;30.85;27.58;;;20.10;99.90;;;;;;5010747;28;20380;-84
2021/07/26 04:07:25;;;;;;;28.98;26.13;;;20.10;99.90;;;;;;5009031;28;20119;-83
2021/07/26 04:09:58;;;;;;;30.15;26.88;;;20.10;99.90;;;;;;5013389;28;20033;-83
2021/07/26 04:12:26;;;;;;;29.08;25.65;;;20.20;99.90;;;;;;5012636;28;20727;-82
2021/07/26 04:14:51;;;;;;;29.80;26.63;;;20.20;99.90;;;;;;5009414;28;20025;-81
2021/07/26 04:17:17;;;;;;;34.17;30.70;;;20.30;99.90;;;;;;5015806;28;20058;-82
2021/07/26 04:19:42;;;;;;;30.55;27.45;;;20.30;99.90;;;;;;5013892;28;20088;-81
2021/07/26 04:22:11;;;;;;;31.33;28.25;;;20.40;99.90;;;;;;5012210;28;20022;-82
2021/07/26 04:24:36;;;;;;;30.15;27.00;;;20.40;99.90;;;;;;5007213;28;20022;-82
2021/07/26 04:27:02;;;;;;;28.50;25.90;;;20.50;99.90;;;;;;5011537;28;20430;-82
2021/07/26 04:29:28;;;;;;;28.20;25.30;;;20.60;99.90;;;;;;5012599;28;20034;-82
2021/07/26 04:31:53;;;;;;;32.53;29.13;;;20.60;99.90;;;;;;5009384;28;20061;-82
2021/07/26 04:34:40;;;;;;;35.25;28.98;;;20.60;99.90;;;;;;5011525;28;20133;-81
2021/07/26 04:37:05;;;;;;;30.95;27.73;;;20.70;99.90;;;;;;5004907;28;20079;-81
2021/07/26 04:39:31;;;;;;;27.38;24.55;;;20.70;99.90;;;;;;5002912;28;20030;-82
2021/07/26 04:41:56;;;;;;;29.20;26.13;;;20.70;99.90;;;;;;5006946;28;20432;-82
2021/07/26 04:44:22;;;;;;;28.00;25.30;;;20.70;99.90;;;;;;5011234;28;20105;-82
2021/07/26 04:46:47;;;;;;;29.25;26.35;;;20.70;99.90;;;;;;5011269;28;20108;-81
2021/07/26 04:49:13;;;;;;;30.95;27.70;;;20.70;99.90;;;;;;5005198;28;20021;-80
2021/07/26 04:51:38;;;;;;;30.30;27.30;;;20.80;99.90;;;;;;5014761;28;20029;-81
2021/07/26 04:54:04;;;;;;;30.20;27.30;;;20.90;99.90;;;;;;5010986;28;20056;-81
2021/07/26 04:56:29;;;;;;;30.90;27.73;;;20.90;99.90;;;;;;5015360;28;20026;-81
2021/07/26 04:58:55;;;;;;;28.38;25.65;;;21.10;99.90;;;;;;5011844;28;20036;-80
2021/07/26 05:01:20;;;;;;;28.60;25.75;;;21.20;99.90;;;;;;5008425;28;20030;-80
2021/07/26 05:03:45;;;;;;;29.05;26.05;;;21.30;99.90;;;;;;5013988;28;20038;-80
2021/07/26 05:06:11;;;;;;;27.85;25.02;;;21.40;99.90;;;;;;5011227;28;20022;-81
2021/07/26 05:08:36;;;;;;;28.88;25.88;;;21.50;99.90;;;;;;5016087;28;20029;-82
2021/07/26 05:11:02;;;;;;;28.17;25.30;;;21.60;99.90;;;;;;5004499;28;20030;-82
2021/07/26 05:13:28;;;;;;;28.38;25.58;;;21.50;99.90;;;;;;5020218;28;20053;-81
2021/07/26 05:15:53;;;;;;;27.55;24.85;;;21.50;99.90;;;;;;5009083;28;20133;-80
2021/07/26 05:18:19;;;;;;;28.92;26.17;;;21.50;99.90;;;;;;5004115;28;20050;-81
2021/07/26 05:20:44;;;;;;;27.55;24.85;;;21.60;99.90;;;;;;5007659;28;20028;-80
2021/07/26 05:23:10;;;;;;;28.42;25.50;;;21.60;99.90;;;;;;5004619;28;20077;-82
2021/07/26 05:25:36;;;;;;;29.67;26.67;;;21.60;99.90;;;;;;5010174;28;20094;-81
2021/07/26 05:28:02;;;;;;;29.60;26.65;;;21.60;99.90;;;;;;5011664;28;20027;-82
2021/07/26 05:30:28;;;;;;;27.08;24.27;;;21.70;99.90;;;;;;5008939;28;20484;-82
2021/07/26 05:32:54;;;;;;;28.58;25.65;;;21.70;99.90;;;;;;5008875;28;20115;-83
2021/07/26 05:35:23;;;;;;;28.60;25.55;;;21.70;99.90;;;;;;5008720;28;20026;-82
2021/07/26 05:37:48;;;;;;;28.23;25.30;;;21.80;99.90;;;;;;5011616;28;20026;-82
2021/07/26 05:40:14;;;;;;;26.80;24.10;;;21.90;99.90;;;;;;5019426;28;20033;-82
2021/07/26 05:42:40;;;;;;;26.95;24.35;;;22.00;99.90;;;;;;5014771;28;20092;-82
2021/07/26 05:45:07;;;;;;;27.65;24.55;;;21.90;99.90;;;;;;5013963;28;20076;-82
2021/07/26 05:47:33;;;;;;;30.13;27.00;;;21.70;99.90;;;;;;5012521;28;20500;-83
2021/07/26 05:49:59;;;;;;;32.35;28.77;;;21.60;99.90;;;;;;5012649;28;20110;-80
2021/07/26 05:52:25;;;;;;;32.17;28.65;;;21.50;99.90;;;;;;5010658;28;20503;-81
2021/07/26 05:54:50;;;;;;;33.60;30.20;;;21.40;99.90;;;;;;5009265;28;20554;-82
2021/07/26 05:57:17;;;;;;;33.47;30.20;;;21.30;99.90;;;;;;5013166;28;20030;-83
2021/07/26 05:59:44;;;;;;;33.53;30.27;;;21.20;99.90;;;;;;5010978;28;20049;-83
2021/07/26 06:02:09;;;;;;;32.92;29.58;;;21.20;99.90;;;;;;5011660;28;20022;-82
2021/07/26 06:04:35;;;;;;;34.25;30.80;;;21.30;99.90;;;;;;5012299;28;20033;-83
2021/07/26 06:07:00;;;;;;;32.10;28.70;;;21.40;99.90;;;;;;5012460;28;20527;-83
2021/07/26 06:09:26;;;;;;;33.63;30.10;;;21.50;99.90;;;;;;5013863;28;20037;-82
2021/07/26 06:11:53;;;;;;;32.90;29.65;;;21.60;99.90;;;;;;5013206;28;20034;-82
2021/07/26 06:14:20;;;;;;;33.25;29.95;;;21.80;99.90;;;;;;5006070;28;20076;-82
2021/07/26 06:16:48;;;;;;;31.38;28.20;;;21.90;99.90;;;;;;5010176;28;20056;-82
2021/07/26 06:19:15;;;;;;;32.90;29.15;;;22.00;99.90;;;;;;5010510;28;20025;-82
2021/07/26 06:21:46;;;;;;;29.90;26.90;;;21.90;99.90;;;;;;5003909;28;20669;-83
2021/07/26 06:24:12;;;;;;;;;;;22.20;99.90;;;;;;5001243;28;20091;-84
2021/07/26 06:26:38;;;;;;;27.83;24.92;;;22.30;99.90;;;;;;5013614;28;19921;-80
2021/07/26 06:29:04;;;;;;;29.40;26.17;;;22.50;99.90;;;;;;5012340;28;20083;-82
2021/07/26 06:31:32;;;;;;;31.15;25.50;;;22.60;99.90;;;;;;5007063;28;20176;-82
2021/07/26 06:34:01;;;;;;;30.08;26.48;;;22.70;99.90;;;;;;5010675;28;20068;-84
2021/07/26 06:36:28;;;;;;;29.20;24.50;;;22.80;99.90;;;;;;5005489;28;20034;-82
2021/07/26 06:38:54;;;;;;;24.95;22.48;;;22.80;99.90;;;;;;5005877;28;20036;-81
2021/07/26 06:41:20;;;;;;;26.08;22.63;;;22.90;99.90;;;;;;5011537;28;20108;-82
2021/07/26 06:43:55;;;;;;;24.90;21.45;;;22.80;99.90;;;;;;5006956;28;20515;-82
2021/07/26 06:46:21;;;;;;;26.25;23.23;;;22.80;99.90;;;;;;5007714;28;20115;-82
2021/07/26 06:48:46;;;;;;;24.77;21.70;;;23.10;99.90;;;;;;5011469;28;20100;-82
2021/07/26 06:51:12;;;;;;;23.15;20.75;;;23.10;99.90;;;;;;5013408;28;20047;-83
2021/07/26 06:53:38;;;;;;;24.30;21.80;;;23.30;99.90;;;;;;5007194;28;20033;-83
2021/07/26 06:56:08;;;;;;;24.25;20.55;;;23.50;99.90;;;;;;5018545;28;20021;-81
2021/07/26 06:58:35;;;;;;;25.80;20.77;;;23.60;99.90;;;;;;5000882;28;20034;-82
2021/07/26 07:01:04;;;;;;;22.15;19.95;;;23.90;99.90;;;;;;5018355;28;20029;-83
2021/07/26 07:03:31;;;;;;;21.13;19.08;;;24.00;99.90;;;;;;5011869;28;20563;-82
2021/07/26 07:06:01;;;;;;;23.15;19.40;;;24.70;99.90;;;;;;5011833;28;20034;-83
2021/07/26 07:08:27;;;;;;;19.33;16.50;;;25.50;99.90;;;;;;5011527;28;20459;-82
2021/07/26 07:11:11;;;;;;;20.92;18.70;;;26.20;99.90;;;;;;5005407;28;20026;-83
2021/07/26 07:13:42;;;;;;;20.10;18.17;;;26.20;99.90;;;;;;5003142;28;20029;-83
2021/07/26 07:16:12;;;;;;;20.17;18.10;;;26.20;99.90;;;;;;4999461;28;20038;-83
2021/07/26 07:18:38;;;;;;;20.48;18.58;;;26.10;99.90;;;;;;5008591;28;20582;-84
2021/07/26 07:21:05;;;;;;;19.63;17.73;;;25.90;99.90;;;;;;5011203;28;20034;-83
2021/07/26 07:23:31;;;;;;;19.95;17.95;;;25.90;99.90;;;;;;5010738;28;20046;-83
2021/07/26 07:25:57;;;;;;;19.58;17.60;;;25.80;99.90;;;;;;5011036;28;20515;-84
2021/07/26 07:28:22;;;;;;;21.17;18.80;;;25.50;99.90;;;;;;5009553;28;20235;-83
2021/07/26 07:30:48;;;;;;;21.77;19.30;;;25.20;99.90;;;;;;5010584;28;20053;-83
2021/07/26 07:33:14;;;;;;;20.35;17.85;;;25.10;99.90;;;;;;5008490;28;20048;-83
2021/07/26 07:35:39;;;;;;;19.67;17.77;;;25.10;99.90;;;;;;5010327;28;20022;-82
2021/07/26 07:38:05;;;;;;;19.08;16.48;;;25.30;99.90;;;;;;5011064;28;20025;-82
2021/07/26 07:40:31;;;;;;;19.30;17.30;;;25.40;99.90;;;;;;5010621;28;20477;-83
2021/07/26 07:42:57;;;;;;;19.45;17.15;;;25.60;99.90;;;;;;5010947;28;20026;-82
2021/07/26 07:45:22;;;;;;;16.48;14.90;;;25.60;99.90;;;;;;5010516;28;20029;-83
2021/07/26 07:47:51;;;;;;;19.58;17.55;;;25.60;99.90;;;;;;5010700;28;20084;-81
2021/07/26 07:50:20;;;;;;;19.13;16.98;;;25.60;99.90;;;;;;5008742;28;20145;-84
2021/07/26 07:52:45;;;;;;;21.40;18.95;;;25.50;99.90;;;;;;5010223;28;20550;-83
2021/07/26 07:55:11;;;;;;;19.00;17.00;;;25.60;99.90;;;;;;5011652;28;20029;-84
2021/07/26 07:57:37;;;;;;;17.60;15.82;;;25.80;99.90;;;;;;5012076;28;20030;-82
2021/07/26 08:00:05;;;;;;;21.50;17.42;;;25.90;99.90;;;;;;5011271;28;20022;-81
2021/07/26 08:02:31;;;;;;;20.98;16.27;;;25.90;99.90;;;;;;5013311;28;20049;-83
2021/07/26 08:04:56;;;;;;;15.90;14.30;;;25.90;99.90;;;;;;5013016;28;20383;-84
2021/07/26 08:07:22;;;;;;;17.17;15.32;;;26.30;99.90;;;;;;5008965;28;20130;-84
2021/07/26 08:09:50;;;;;;;16.85;15.23;;;26.60;99.90;;;;;;5011887;28;20122;-85
2021/07/26 08:12:16;;;;;;;17.13;15.40;;;27.20;99.90;;;;;;5012600;28;20029;-86
2021/07/26 08:14:42;;;;;;;16.08;14.52;;;27.90;99.90;;;;;;5012400;28;20030;-83
2021/07/26 08:17:07;;;;;;;18.17;16.40;;;28.50;99.90;;;;;;5014984;28;20160;-87
2021/07/26 08:19:33;;;;;;;16.90;15.23;;;28.30;99.90;;;;;;5012680;28;20026;-84
2021/07/26 08:21:58;;;;;;;16.10;14.60;;;28.30;99.90;;;;;;5012427;28;20022;-84
2021/07/26 08:24:24;;;;;;;18.42;16.73;;;28.40;99.90;;;;;;5012778;28;20034;-86
2021/07/26 08:26:50;;;;;;;18.90;17.00;;;27.90;99.90;;;;;;5012979;28;20057;-84
2021/07/26 08:29:16;;;;;;;15.90;14.32;;;27.90;99.90;;;;;;5013205;28;20075;-84
2021/07/26 08:31:41;;;;;;;17.30;15.73;;;28.00;99.90;;;;;;5013709;28;20076;-83
2021/07/26 08:34:07;;;;;;;16.70;15.20;;;27.90;99.90;;;;;;5016409;28;20026;-84
2021/07/26 08:36:32;;;;;;;19.13;16.08;;;27.80;99.90;;;;;;5017818;28;20030;-84
2021/07/26 08:38:58;;;;;;;16.27;14.75;;;28.00;99.90;;;;;;5017652;28;20034;-84
2021/07/26 08:41:23;;;;;;;16.95;15.35;;;28.10;99.90;;;;;;5017975;28;20022;-84
2021/07/26 08:43:49;;;;;;;17.15;14.30;;;28.70;99.90;;;;;;5018252;28;20021;-84
2021/07/26 08:46:17;;;;;;;16.92;15.40;;;29.10;99.50;;;;;;5024095;28;20034;-83
2021/07/26 08:48:45;;;;;;;15.30;13.70;;;28.80;99.90;;;;;;5031320;28;20120;-86
2021/07/26 08:51:14;;;;;;;15.43;14.02;;;29.10;99.20;;;;;;5027211;28;20022;-84
2021/07/26 08:53:39;;;;;;;16.77;15.18;;;29.70;98.30;;;;;;5032516;28;20033;-86
2021/07/26 08:56:06;;;;;;;15.73;14.18;;;30.50;97.00;;;;;;5029541;28;20045;-88
2021/07/26 08:58:31;;;;;;;14.27;12.73;;;30.50;96.00;;;;;;5032691;28;21104;-87
2021/07/26 09:00:57;;;;;;;16.42;14.63;;;30.50;95.80;;;;;;5031344;28;20018;-88
2021/07/26 09:03:23;;;;;;;15.52;13.88;;;30.80;95.40;;;;;;5028975;28;20078;-89
2021/07/26 09:05:49;;;;;;;17.50;15.70;;;31.10;95.10;;;;;;5033555;28;20108;-88
2021/07/26 09:08:18;;;;;;;21.30;18.70;;;31.00;94.80;;;;;;5026217;28;20026;-81
2021/07/26 09:10:44;;;;;;;17.25;15.48;;;31.70;93.70;;;;;;5028196;28;20022;-80
2021/07/26 09:13:12;;;;;;;16.05;14.50;;;32.00;93.20;;;;;;5017349;28;20065;-80
2021/07/26 09:15:40;;;;;;;14.63;13.27;;;32.30;92.50;;;;;;5018874;28;20041;-80
2021/07/26 09:18:08;;;;;;;14.20;13.00;;;32.30;92.20;;;;;;5024200;28;20111;-81
2021/07/26 09:20:36;;;;;;;15.98;14.43;;;32.60;91.20;;;;;;5024766;28;20498;-80
2021/07/26 09:23:13;;;;;;;15.05;13.70;;;32.50;90.90;;;;;;5015544;28;20030;-79
2021/07/26 09:25:44;;;;;;;14.00;12.35;;;32.50;88.60;;;;;;5020062;28;20057;-78
2021/07/26 09:28:17;;;;;;;11.93;10.80;;;33.10;89.20;;;;;;5026424;28;20071;-80
2021/07/26 09:30:51;;;;;;;12.05;10.90;;;33.60;84.50;;;;;;5027106;28;20080;-78
2021/07/26 09:33:22;;;;;;;12.18;10.95;;;33.50;84.10;;;;;;5018713;28;20053;-80
2021/07/26 09:36:18;;;;;;;13.27;12.02;;;33.00;84.70;;;;;;5024057;28;20093;-82
2021/07/26 09:38:49;;;;;;;12.35;11.15;;;33.20;83.80;;;;;;5015832;28;20034;-79
2021/07/26 09:41:45;;;;;;;12.48;11.38;;;34.30;81.40;;;;;;5026819;28;20032;-81
2021/07/26 09:44:11;;;;;;;12.30;11.20;;;34.60;80.50;;;;;;5013344;28;20423;-81
2021/07/26 09:46:41;;;;;;;14.82;11.73;;;35.60;77.60;;;;;;5012720;28;20045;-82
2021/07/26 09:49:14;;;;;;;12.00;11.00;;;35.70;76.00;;;;;;5008571;28;20030;-83
2021/07/26 09:51:41;;;;;;;11.68;10.50;;;35.10;76.40;;;;;;5006561;28;20374;-80
2021/07/26 09:54:08;;;;;;;11.57;10.57;;;35.30;75.20;;;;;;5013172;28;20400;-80
2021/07/26 09:56:35;;;;;;;11.50;10.32;;;34.90;74.90;;;;;;5014305;28;20033;-80
2021/07/26 09:59:01;;;;;;;10.35;9.50;;;34.90;74.70;;;;;;5012205;28;20033;-84
2021/07/26 10:01:28;;;;;;;11.43;10.32;;;34.80;74.70;;;;;;5009699;28;20026;-80
2021/07/26 10:03:55;;;;;;;15.98;11.55;;;34.70;75.40;;;;;;5011765;28;20188;-81
2021/07/26 10:06:21;;;;;;;13.00;11.90;;;35.70;74.00;;;;;;5011969;28;20078;-81
2021/07/26 10:08:48;;;;;;;11.55;10.65;;;36.10;71.60;;;;;;5014279;28;20029;-81
2021/07/26 10:11:20;;;;;;;11.98;10.90;;;35.00;72.30;;;;;;5017631;28;20166;-82
2021/07/26 10:13:49;;;;;;;9.43;8.65;;;35.00;72.90;;;;;;5007367;28;20025;-81
2021/07/26 10:16:18;;;;;;;8.82;8.13;;;35.80;69.80;;;;;;5009476;28;20076;-81
2021/07/26 10:18:46;;;;;;;10.02;9.13;;;36.10;68.30;;;;;;5017338;28;20042;-88
2021/07/26 10:21:18;;;;;;;8.70;8.00;;;36.00;67.00;;;;;;5022423;28;20029;-88
2021/07/26 10:23:53;;;;;;;8.90;8.10;;;35.70;67.00;;;;;;5021340;28;20116;-89
2021/07/26 10:26:23;;;;;;;8.77;7.97;;;35.40;67.50;;;;;;5024568;28;20033;-88
2021/07/26 10:28:56;;;;;;;9.82;7.78;;;35.60;67.00;;;;;;5024261;28;20109;-88
2021/07/26 10:31:31;;;;;;;9.48;8.57;;;35.80;66.80;;;;;;5019930;28;20172;-90
2021/07/26 10:34:15;;;;;;;9.48;8.48;;;35.20;67.50;;;;;;5018565;28;20021;-88
2021/07/26 10:36:40;;;;;;;8.90;8.20;;;35.50;67.60;;;;;;5017845;28;20032;-89
2021/07/26 10:39:16;;;;;;;8.10;7.30;;;35.40;67.30;;;;;;5020269;28;20093;-88
2021/07/26 10:41:42;;;;;;;8.07;7.32;;;36.00;66.20;;;;;;5020217;28;20480;-88
2021/07/26 10:44:08;;;;;;;7.97;7.38;;;36.60;64.80;;;;;;5021026;28;20060;-87
2021/07/26 10:46:53;;;;;;;8.57;7.70;;;36.00;65.50;;;;;;5019049;28;20080;-87
2021/07/26 10:49:39;;;;;;;7.45;6.85;;;36.50;65.50;;;;;;5020000;28;20045;-88
2021/07/26 10:52:04;;;;;;;8.50;7.15;;;36.30;65.30;;;;;;5015157;28;20049;-88
2021/07/26 10:54:32;;;;;;;9.00;8.20;;;36.10;64.80;;;;;;5017350;28;20086;-87
2021/07/26 10:57:01;;;;;;;10.43;9.52;;;35.50;65.90;;;;;;5016918;28;20044;-87
2021/07/26 10:59:28;;;;;;;8.55;7.78;;;35.30;65.80;;;;;;5016591;28;20048;-88
2021/07/26 11:02:01;;;;;;;8.30;7.53;;;34.00;66.00;;;;;;5001140;28;20026;-87
2021/07/26 11:04:31;;;;;;;8.68;7.88;;;33.30;68.10;;;;;;5020530;28;20045;-88
2021/07/26 11:06:57;;;;;;;9.95;9.07;;;33.20;69.60;;;;;;5020516;28;20026;-87
2021/07/26 11:09:32;;;;;;;10.48;8.35;;;33.30;70.30;;;;;;5021354;28;20411;-88
2021/07/26 11:12:00;;;;;;;8.98;8.18;;;33.70;70.00;;;;;;5028983;28;20036;-88
2021/07/26 11:14:25;;;;;;;10.02;9.15;;;33.10;70.00;;;;;;5026137;28;20101;-87
2021/07/26 11:20:00;;;;;;;8.25;7.45;;;33.00;70.40;;;;;;5032083;28;20050;-87
2021/07/26 11:22:25;;;;;;;9.13;8.20;;;32.90;69.70;;;;;;5028177;28;20030;-88
2021/07/26 11:24:54;;;;;;;8.10;7.40;;;33.10;70.70;;;;;;5031334;28;20029;-88
2021/07/26 11:27:23;;;;;;;8.60;7.80;;;33.00;69.30;;;;;;5012421;28;20270;-87
2021/07/26 11:29:53;;;;;;;10.25;9.30;;;32.70;71.30;;;;;;5010580;28;20026;-86
2021/07/26 11:32:19;;;;;;;7.43;6.82;;;32.70;70.10;;;;;;5000471;28;20056;-90
2021/07/26 11:34:45;;;;;;;10.77;9.82;;;32.70;68.90;;;;;;5011827;28;20045;-88
2021/07/26 11:37:14;;;;;;;9.02;8.13;;;32.70;68.70;;;;;;5009407;28;20044;-88
2021/07/26 11:39:59;;;;;;;8.05;7.25;;;32.30;70.40;;;;;;5009340;28;20088;-88
2021/07/26 11:42:31;;;;;;;8.52;7.55;;;31.80;70.40;;;;;;5006617;28;20034;-90
2021/07/26 11:44:57;;;;;;;9.00;8.20;;;31.60;70.80;;;;;;5010652;28;20049;-91
2021/07/26 11:47:32;;;;;;;8.02;7.05;;;32.10;71.20;;;;;;5009450;28;20029;-90
2021/07/26 11:50:06;;;;;;;7.65;7.05;;;33.70;67.10;;;;;;5010934;28;20023;-89
2021/07/26 11:52:32;;;;;;;10.07;8.27;;;33.70;67.50;;;;;;5009111;28;20030;-90
2021/07/26 11:54:58;;;;;;;7.20;6.60;;;34.00;67.00;;;;;;5008338;28;20053;-89
2021/07/26 11:57:23;;;;;;;7.53;6.65;;;35.30;66.20;;;;;;5005832;28;20034;-90
2021/07/26 11:59:51;;;;;;;6.93;6.32;;;35.00;65.80;;;;;;5008925;28;20026;-91
2021/07/26 12:02:28;;;;;;;9.10;8.20;;;33.90;65.30;;;;;;5005639;28;20029;-91
2021/07/26 12:05:09;;;;;;;7.65;6.95;;;33.00;66.20;;;;;;5002568;28;20330;-91
2021/07/26 12:07:42;;;;;;;7.43;6.75;;;32.50;67.30;;;;;;4999867;28;20061;-90
2021/07/26 12:10:08;;;;;;;8.15;6.65;;;32.50;67.10;;;;;;4999867;28;20018;-89
2021/07/26 12:12:41;;;;;;;8.57;7.13;;;32.60;69.30;;;;;;5002043;28;20056;-90
2021/07/26 12:15:26;;;;;;;7.47;6.85;;;33.80;69.20;;;;;;4997481;28;20026;-91
2021/07/26 12:18:11;;;;;;;7.43;6.18;;;34.00;70.30;;;;;;4994083;28;20026;-91
2021/07/26 12:20:39;;;;;;;7.45;6.75;;;35.50;65.60;;;;;;4995922;28;20034;-91
2021/07/26 12:23:20;;;;;;;7.10;6.40;;;36.10;65.80;;;;;;4996555;28;20029;-89
2021/07/26 12:25:51;;;;;;;7.75;6.50;;;37.30;62.70;;;;;;4997409;28;20026;-90
2021/07/26 12:28:18;;;;;;;7.50;6.78;;;36.90;62.70;;;;;;4996977;28;20026;-90
2021/07/26 12:30:50;;;;;;;7.35;6.60;;;37.60;62.60;;;;;;4995733;28;20031;-90
2021/07/26 12:33:30;;;;;;;7.03;6.32;;;37.80;59.10;;;;;;5011899;28;20376;-90
2021/07/26 12:36:16;;;;;;;6.95;6.40;;;36.00;62.10;;;;;;4994980;28;20038;-90
2021/07/26 12:39:04;;;;;;;7.00;6.30;;;36.50;62.90;;;;;;5015188;28;20345;-90